createdAt,value
2022-07-31T00:00:26.936Z,4.40
2022-07-31T00:02:54.024Z,6.90
2022-07-31T00:05:20.883Z,5.18
2022-07-31T00:07:47.817Z,6.05
2022-07-31T00:10:14.864Z,5.00
2022-07-31T00:12:42.858Z,7.20
2022-07-31T00:15:10.827Z,5.63
2022-07-31T00:17:41.464Z,5.45
2022-07-31T00:20:10.134Z,6.72
2022-07-31T00:22:37.518Z,4.47
2022-07-31T00:25:04.731Z,14.70
2022-07-31T00:27:31.727Z,12.57
2022-07-31T00:29:58.703Z,8.93
2022-07-31T00:32:25.728Z,4.30
2022-07-31T00:34:52.714Z,4.82
2022-07-31T00:37:19.813Z,4.78
2022-07-31T00:39:46.712Z,5.47
2022-07-31T00:42:18.420Z,4.85
2022-07-31T00:44:47.795Z,5.30
2022-07-31T00:47:15.727Z,6.88
2022-07-31T00:49:43.841Z,11.95
2022-07-31T00:52:11.085Z,5.13
2022-07-31T00:54:38.848Z,5.97
2022-07-31T00:57:06.608Z,4.20
2022-07-31T00:59:34.153Z,4.30
2022-07-31T01:02:01.589Z,5.03
2022-07-31T01:04:28.564Z,4.82
2022-07-31T01:06:59.400Z,5.80
2022-07-31T01:09:26.826Z,12.05
2022-07-31T01:12:24.151Z,5.18
2022-07-31T01:14:59.833Z,4.78
2022-07-31T01:17:30.450Z,4.97
2022-07-31T01:19:57.886Z,5.38
2022-07-31T01:22:43.190Z,7.03
2022-07-31T01:25:26.501Z,4.80
2022-07-31T01:28:10.027Z,5.15
2022-07-31T01:31:24.706Z,5.68
2022-07-31T01:33:56.348Z,5.25
2022-07-31T01:36:27.620Z,5.10
2022-07-31T01:38:57.335Z,6.57
2022-07-31T01:41:30.127Z,5.22
2022-07-31T01:43:59.828Z,5.63
2022-07-31T01:46:28.824Z,4.40
2022-07-31T01:48:57.901Z,4.00
2022-07-31T01:51:26.660Z,5.07
2022-07-31T01:53:55.797Z,6.50
2022-07-31T01:56:24.234Z,5.30
2022-07-31T01:58:53.100Z,4.60
2022-07-31T02:01:39.277Z,4.65
2022-07-31T02:04:10.324Z,5.40
2022-07-31T02:06:40.503Z,4.78
2022-07-31T02:09:07.483Z,5.18
2022-07-31T02:11:35.968Z,6.35
2022-07-31T02:14:22.790Z,5.75
2022-07-31T02:16:50.113Z,6.15
2022-07-31T02:19:24.802Z,5.15
2022-07-31T02:21:52.971Z,8.52
2022-07-31T02:24:19.895Z,5.43
2022-07-31T02:26:47.387Z,5.85
2022-07-31T02:29:20.028Z,4.80
2022-07-31T02:32:03.286Z,6.15
2022-07-31T02:34:34.720Z,4.72
2022-07-31T02:37:03.044Z,4.45
2022-07-31T02:39:32.417Z,4.55
2022-07-31T02:42:01.669Z,6.53
2022-07-31T02:44:32.308Z,5.35
2022-07-31T02:47:02.446Z,4.40
2022-07-31T02:49:30.697Z,5.25
2022-07-31T02:52:00.091Z,5.25
2022-07-31T02:54:28.285Z,5.47
2022-07-31T02:56:56.253Z,5.07
2022-07-31T02:59:24.336Z,6.07
2022-07-31T03:01:59.954Z,5.43
2022-07-31T03:04:29.981Z,4.38
2022-07-31T03:06:57.049Z,5.57
2022-07-31T03:09:25.990Z,7.00
2022-07-31T03:12:07.003Z,5.28
2022-07-31T03:14:36.596Z,5.15
2022-07-31T03:17:04.486Z,6.28
2022-07-31T03:19:33.224Z,5.32
2022-07-31T03:22:00.965Z,5.15
2022-07-31T03:24:28.701Z,6.10
2022-07-31T03:26:55.811Z,5.07
2022-07-31T03:29:39.014Z,4.22
2022-07-31T03:32:09.951Z,4.93
2022-07-31T03:34:36.867Z,5.93
2022-07-31T03:37:03.691Z,5.97
2022-07-31T03:39:31.547Z,5.90
2022-07-31T03:42:04.975Z,5.47
2022-07-31T03:44:33.873Z,6.57
2022-07-31T03:47:01.788Z,4.95
2022-07-31T03:49:31.004Z,5.25
2022-07-31T03:51:59.801Z,5.68
2022-07-31T03:54:26.997Z,7.20
2022-07-31T03:57:06.850Z,4.60
2022-07-31T03:59:40.506Z,4.93
2022-07-31T04:02:17.175Z,7.97
2022-07-31T04:04:50.068Z,8.38
2022-07-31T04:07:17.155Z,6.97
2022-07-31T04:09:44.181Z,5.13
2022-07-31T04:12:14.829Z,5.95
2022-07-31T04:14:42.895Z,5.10
2022-07-31T04:17:10.163Z,6.85
2022-07-31T04:19:37.254Z,5.65
2022-07-31T04:22:05.312Z,5.68
2022-07-31T04:24:33.822Z,6.05
2022-07-31T04:27:00.866Z,7.10
2022-07-31T04:29:36.607Z,5.20
2022-07-31T04:32:05.284Z,6.25
2022-07-31T04:34:37.880Z,6.10
2022-07-31T04:37:05.218Z,7.82
2022-07-31T04:39:32.256Z,6.78
2022-07-31T04:41:59.299Z,5.63
2022-07-31T04:44:26.303Z,5.90
2022-07-31T04:47:00.277Z,6.45
2022-07-31T04:49:28.186Z,8.35
2022-07-31T04:51:55.505Z,7.90
2022-07-31T04:54:22.933Z,7.72
2022-07-31T04:56:50.663Z,6.53
2022-07-31T04:59:20.259Z,8.05
2022-07-31T05:01:48.888Z,5.68
2022-07-31T05:04:19.272Z,5.45
2022-07-31T05:06:50.181Z,6.00
2022-07-31T05:09:19.648Z,5.20
2022-07-31T05:11:52.967Z,5.18
2022-07-31T05:14:21.245Z,6.28
2022-07-31T05:16:49.268Z,4.93
2022-07-31T05:19:17.925Z,4.78
2022-07-31T05:22:05.611Z,5.35
2022-07-31T05:24:43.122Z,5.70
2022-07-31T05:27:12.859Z,6.45
2022-07-31T05:29:41.968Z,4.03
2022-07-31T05:32:09.437Z,6.40
2022-07-31T05:34:37.275Z,5.40
2022-07-31T05:37:05.175Z,4.25
2022-07-31T05:39:35.202Z,4.65
2022-07-31T05:42:20.863Z,6.30
2022-07-31T05:45:03.314Z,5.07
2022-07-31T05:47:40.590Z,4.25
2022-07-31T05:50:10.153Z,6.13
2022-07-31T05:52:38.421Z,4.78
2022-07-31T05:55:18.064Z,4.80
2022-07-31T05:58:08.067Z,6.50
2022-07-31T06:00:35.620Z,3.45
2022-07-31T06:03:02.772Z,6.10
2022-07-31T06:06:08.105Z,5.15
2022-07-31T06:08:35.270Z,5.47
2022-07-31T06:11:02.365Z,5.22
2022-07-31T06:13:30.968Z,4.45
2022-07-31T06:16:12.737Z,5.13
2022-07-31T06:18:39.790Z,4.13
2022-07-31T06:21:06.614Z,4.35
2022-07-31T06:23:33.812Z,5.63
2022-07-31T06:26:13.969Z,5.28
2022-07-31T06:28:47.874Z,6.60
2022-07-31T06:31:18.859Z,4.97
2022-07-31T06:33:47.381Z,3.17
2022-07-31T06:36:17.153Z,4.97
2022-07-31T06:41:50.441Z,6.43
2022-07-31T06:44:30.910Z,5.47
2022-07-31T06:47:18.123Z,5.35
2022-07-31T06:50:06.346Z,5.97
2022-07-31T06:52:37.850Z,5.75
2022-07-31T06:55:07.149Z,4.65
2022-07-31T06:57:34.749Z,4.40
2022-07-31T07:00:06.922Z,6.32
2022-07-31T07:02:42.176Z,7.65
2022-07-31T07:05:09.016Z,3.45
2022-07-31T07:07:36.971Z,5.72
2022-07-31T07:10:06.841Z,5.75
2022-07-31T07:12:56.556Z,4.78
2022-07-31T07:15:23.318Z,6.00
2022-07-31T07:17:50.236Z,5.03
2022-07-31T07:20:22.447Z,4.50
2022-07-31T07:22:49.330Z,4.45
2022-07-31T07:25:32.265Z,4.60
2022-07-31T07:28:00.348Z,5.00
2022-07-31T07:30:28.813Z,4.00
2022-07-31T07:32:59.775Z,5.07
2022-07-31T07:35:30.760Z,5.40
2022-07-31T07:38:03.172Z,6.38
2022-07-31T07:40:30.470Z,6.03
2022-07-31T07:43:02.586Z,5.78
2022-07-31T07:45:30.336Z,5.13
2022-07-31T07:48:06.109Z,5.72
2022-07-31T07:50:47.694Z,4.13
2022-07-31T07:53:43.914Z,4.50
2022-07-31T07:56:50.602Z,4.95
2022-07-31T07:59:37.388Z,9.18
2022-07-31T08:02:30.089Z,5.70
2022-07-31T08:04:56.993Z,5.97
2022-07-31T08:07:42.254Z,6.15
2022-07-31T08:10:28.554Z,3.90
2022-07-31T08:13:21.599Z,6.30
2022-07-31T08:16:07.011Z,6.15
2022-07-31T08:18:41.239Z,8.40
2022-07-31T08:21:08.110Z,7.10
2022-07-31T08:23:35.061Z,4.00
2022-07-31T08:26:04.543Z,6.68
2022-07-31T08:28:34.648Z,7.00
2022-07-31T08:31:04.177Z,6.80
2022-07-31T08:33:33.929Z,6.05
2022-07-31T08:36:01.426Z,6.75
2022-07-31T08:38:28.956Z,4.70
2022-07-31T08:41:18.954Z,3.90
2022-07-31T08:44:02.574Z,4.57
2022-07-31T08:46:38.321Z,4.75
2022-07-31T08:49:07.411Z,5.15
2022-07-31T08:51:51.649Z,10.27
2022-07-31T08:54:43.696Z,5.25
2022-07-31T08:57:12.880Z,6.70
2022-07-31T08:59:43.617Z,6.95
2022-07-31T09:02:11.892Z,7.60
2022-07-31T09:04:52.768Z,6.13
2022-07-31T09:07:21.161Z,5.57
2022-07-31T09:09:57.789Z,4.72
2022-07-31T09:12:34.203Z,8.52
2022-07-31T09:15:20.198Z,6.45
2022-07-31T09:17:51.880Z,7.80
2022-07-31T09:20:27.871Z,6.35
2022-07-31T09:23:10.012Z,6.05
2022-07-31T09:25:50.794Z,6.45
2022-07-31T09:28:21.021Z,6.80
2022-07-31T09:30:56.482Z,5.10
2022-07-31T09:33:46.161Z,5.82
2022-07-31T09:36:25.155Z,6.75
2022-07-31T09:38:59.657Z,7.50
2022-07-31T09:42:01.019Z,4.65
2022-07-31T09:44:43.920Z,5.68
2022-07-31T09:47:28.883Z,4.85
2022-07-31T09:50:03.901Z,3.65
2022-07-31T09:52:32.358Z,7.35
2022-07-31T09:55:15.033Z,3.72
2022-07-31T09:57:54.988Z,6.30
2022-07-31T10:00:23.953Z,5.07
2022-07-31T10:02:53.481Z,6.22
2022-07-31T10:05:25.626Z,5.22
2022-07-31T10:07:57.787Z,6.50
2022-07-31T10:10:38.738Z,5.03
2022-07-31T10:13:23.603Z,5.45
2022-07-31T10:15:54.204Z,7.22
2022-07-31T10:18:44.509Z,6.63
2022-07-31T10:21:54.587Z,5.25
2022-07-31T10:24:28.814Z,5.55
2022-07-31T10:27:01.160Z,4.72
2022-07-31T10:29:32.489Z,3.63
2022-07-31T10:32:01.313Z,4.97
2022-07-31T10:34:29.108Z,3.42
2022-07-31T10:37:17.928Z,6.60
2022-07-31T10:40:29.331Z,5.95
2022-07-31T10:43:21.587Z,3.87
2022-07-31T10:46:08.387Z,4.88
2022-07-31T10:48:53.235Z,4.75
2022-07-31T10:51:53.441Z,4.10
2022-07-31T10:54:44.712Z,4.88
2022-07-31T10:57:34.903Z,3.80
2022-07-31T11:00:40.486Z,3.70
2022-07-31T11:03:54.714Z,4.53
2022-07-31T11:06:44.597Z,4.90
2022-07-31T11:09:45.443Z,3.42
2022-07-31T11:13:10.960Z,4.70
2022-07-31T11:16:05.700Z,4.28
2022-07-31T11:18:59.636Z,3.10
2022-07-31T11:21:38.963Z,3.92
2022-07-31T11:24:20.465Z,3.80
2022-07-31T11:26:58.257Z,3.10
2022-07-31T11:29:59.451Z,3.75
2022-07-31T11:32:25.426Z,2.00
2022-07-31T11:34:55.047Z,3.17
2022-07-31T11:37:25.589Z,2.58
2022-07-31T11:39:54.073Z,1.80
2022-07-31T11:42:27.506Z,2.00
2022-07-31T11:45:11.054Z,5.78
2022-07-31T11:48:11.121Z,2.83
2022-07-31T11:50:30.554Z,3.38
2022-07-31T11:53:04.543Z,4.15
2022-07-31T11:55:31.380Z,3.00
2022-07-31T11:57:58.151Z,2.70
2022-07-31T12:00:29.051Z,1.88
2022-07-31T12:02:58.024Z,2.85
2022-07-31T12:05:36.136Z,2.30
2022-07-31T12:08:07.499Z,2.92
2022-07-31T12:10:34.522Z,3.63
2022-07-31T12:13:02.602Z,3.50
2022-07-31T12:15:29.508Z,2.53
2022-07-31T12:18:05.024Z,4.95
2022-07-31T12:20:36.869Z,2.33
2022-07-31T12:23:05.556Z,4.60
2022-07-31T12:25:46.363Z,3.67
2022-07-31T12:28:14.424Z,3.85
2022-07-31T12:30:42.367Z,4.85
2022-07-31T12:33:10.867Z,3.00
2022-07-31T12:35:56.095Z,5.55
2022-07-31T12:41:08.408Z,3.83
2022-07-31T12:43:37.674Z,4.20
2022-07-31T12:46:07.575Z,3.80
2022-07-31T12:48:40.139Z,3.28
2022-07-31T12:51:09.180Z,6.75
2022-07-31T12:53:35.904Z,4.10
2022-07-31T12:56:02.658Z,2.22
2022-07-31T12:58:29.658Z,2.75
2022-07-31T13:00:57.121Z,2.72
2022-07-31T13:03:23.942Z,2.08
2022-07-31T13:06:05.937Z,3.40
2022-07-31T13:08:33.804Z,2.70
2022-07-31T13:11:00.641Z,2.75
2022-07-31T13:13:27.409Z,3.90
2022-07-31T13:15:54.364Z,3.40
2022-07-31T13:18:21.124Z,3.47
2022-07-31T13:20:47.860Z,2.80
2022-07-31T13:23:14.592Z,5.38
2022-07-31T13:25:41.372Z,1.77
2022-07-31T13:28:08.077Z,2.10
2022-07-31T13:30:34.905Z,3.50
2022-07-31T13:33:01.624Z,2.45
2022-07-31T13:35:29.286Z,2.75
2022-07-31T13:37:56.448Z,2.50
2022-07-31T13:40:41.756Z,2.40
2022-07-31T13:43:08.464Z,3.40
2022-07-31T13:45:35.289Z,3.70
2022-07-31T13:48:04.478Z,2.40
2022-07-31T13:50:37.190Z,2.85
2022-07-31T13:53:04.479Z,2.30
2022-07-31T13:55:31.325Z,2.53
2022-07-31T13:58:01.353Z,3.28
2022-07-31T14:00:30.460Z,3.67
2022-07-31T14:02:57.563Z,1.75
2022-07-31T14:05:26.458Z,3.05
2022-07-31T14:07:54.715Z,4.22
2022-07-31T14:10:22.093Z,5.07
2022-07-31T14:12:49.439Z,3.28
2022-07-31T14:15:19.046Z,2.95
2022-07-31T14:17:45.893Z,3.72
2022-07-31T14:20:13.172Z,2.60
2022-07-31T14:22:40.300Z,2.67
2022-07-31T14:25:07.456Z,3.78
2022-07-31T14:27:34.587Z,2.13
2022-07-31T14:30:01.620Z,2.20
2022-07-31T14:32:30.594Z,3.70
2022-07-31T14:34:57.410Z,2.70
2022-07-31T14:37:24.421Z,3.38
2022-07-31T14:39:51.386Z,4.25
2022-07-31T14:42:22.300Z,3.97
2022-07-31T14:44:53.448Z,2.90
2022-07-31T14:47:21.940Z,5.05
2022-07-31T14:50:07.250Z,2.10
2022-07-31T14:52:35.876Z,3.50
2022-07-31T14:55:02.822Z,2.63
2022-07-31T14:57:31.364Z,3.55
2022-07-31T14:59:58.362Z,4.05
2022-07-31T15:02:25.649Z,4.13
2022-07-31T15:04:53.304Z,2.50
2022-07-31T15:07:38.611Z,3.50
2022-07-31T15:12:34.905Z,4.72
2022-07-31T15:15:02.021Z,3.20
2022-07-31T15:17:28.747Z,3.25
2022-07-31T15:19:55.525Z,2.53
2022-07-31T15:22:22.363Z,2.53
2022-07-31T15:24:50.218Z,3.33
2022-07-31T15:27:18.946Z,2.70
2022-07-31T15:30:04.087Z,3.72
2022-07-31T15:32:32.912Z,4.43
2022-07-31T15:34:59.677Z,3.35
2022-07-31T15:37:26.407Z,4.18
2022-07-31T15:40:01.581Z,3.53
2022-07-31T15:42:38.306Z,2.28
2022-07-31T15:45:12.699Z,2.13
2022-07-31T15:47:40.450Z,3.30
2022-07-31T15:50:10.015Z,3.15
2022-07-31T15:52:37.340Z,2.63
2022-07-31T15:55:05.328Z,3.20
2022-07-31T15:57:32.395Z,2.13
2022-07-31T15:59:59.322Z,3.35
2022-07-31T16:02:26.942Z,2.80
2022-07-31T16:04:57.452Z,2.80
2022-07-31T16:08:29.264Z,3.33
2022-07-31T16:10:17.952Z,3.33
2022-07-31T16:12:46.111Z,3.65
2022-07-31T16:15:13.956Z,3.17
2022-07-31T16:17:41.739Z,3.72
2022-07-31T16:20:11.973Z,2.10
2022-07-31T16:22:40.624Z,3.05
2022-07-31T16:25:09.737Z,2.58
2022-07-31T16:27:37.515Z,2.20
2022-07-31T16:30:05.651Z,1.85
2022-07-31T16:32:32.801Z,2.58
2022-07-31T16:35:01.398Z,1.45
2022-07-31T16:37:50.475Z,2.85
2022-07-31T16:40:28.854Z,5.35
2022-07-31T16:43:47.734Z,2.58
2022-07-31T16:45:51.130Z,3.88
2022-07-31T16:48:18.002Z,2.78
2022-07-31T16:50:44.848Z,2.25
2022-07-31T16:54:09.894Z,2.75
2022-07-31T16:56:02.067Z,3.10
2022-07-31T16:58:29.400Z,4.20
2022-07-31T17:00:56.433Z,2.45
2022-07-31T17:04:00.133Z,2.90
2022-07-31T17:06:11.429Z,2.63
2022-07-31T17:08:38.295Z,2.85
2022-07-31T17:11:06.308Z,2.97
2022-07-31T17:13:33.033Z,2.83
2022-07-31T17:15:59.738Z,3.33
2022-07-31T17:18:26.634Z,1.25
2022-07-31T17:20:55.922Z,5.10
2022-07-31T17:23:42.812Z,4.93
2022-07-31T17:26:21.116Z,3.38
2022-07-31T17:28:51.750Z,4.07
2022-07-31T17:31:19.052Z,4.93
2022-07-31T17:33:58.911Z,2.08
2022-07-31T17:36:28.777Z,3.25
2022-07-31T17:38:56.410Z,2.67
2022-07-31T17:41:25.288Z,3.90
2022-07-31T17:43:55.384Z,2.28
2022-07-31T17:46:34.741Z,2.08
2022-07-31T17:49:05.718Z,2.28
2022-07-31T17:51:33.097Z,2.42
2022-07-31T17:54:00.574Z,2.60
2022-07-31T17:56:27.537Z,2.08
2022-07-31T17:58:55.593Z,3.08
2022-07-31T18:01:27.041Z,2.42
2022-07-31T18:03:55.846Z,2.83
2022-07-31T18:06:22.675Z,3.35
2022-07-31T18:08:49.604Z,2.65
2022-07-31T18:11:16.528Z,2.33
2022-07-31T18:13:48.101Z,3.42
2022-07-31T18:16:21.437Z,3.42
2022-07-31T18:18:51.359Z,2.47
2022-07-31T18:21:21.603Z,2.35
2022-07-31T18:23:48.432Z,3.65
2022-07-31T18:26:15.424Z,4.38
2022-07-31T18:28:42.526Z,2.70
2022-07-31T18:31:32.281Z,2.50
2022-07-31T18:33:56.227Z,2.45
2022-07-31T18:36:23.072Z,3.08
2022-07-31T18:38:51.840Z,2.55
2022-07-31T18:41:18.871Z,2.67
2022-07-31T18:43:45.646Z,6.00
2022-07-31T18:46:12.423Z,4.38
2022-07-31T18:48:39.195Z,4.30
2022-07-31T18:51:06.052Z,3.63
2022-07-31T18:53:35.886Z,2.28
2022-07-31T18:56:03.096Z,3.75
2022-07-31T18:58:30.605Z,2.85
2022-07-31T19:00:57.409Z,2.13
2022-07-31T19:03:26.195Z,4.47
2022-07-31T19:05:53.529Z,3.35
2022-07-31T19:08:21.175Z,3.13
2022-07-31T19:10:53.376Z,2.97
2022-07-31T19:13:23.379Z,2.60
2022-07-31T19:15:52.949Z,2.17
2022-07-31T19:18:28.182Z,3.28
2022-07-31T19:21:23.580Z,6.13
2022-07-31T19:23:43.635Z,3.80
2022-07-31T19:26:10.591Z,3.33
2022-07-31T19:28:41.484Z,3.97
2022-07-31T19:31:08.475Z,2.53
2022-07-31T19:33:35.751Z,2.80
2022-07-31T19:36:03.379Z,3.78
2022-07-31T19:38:35.831Z,3.25
2022-07-31T19:41:03.132Z,2.75
2022-07-31T19:43:30.379Z,3.47
2022-07-31T19:46:09.719Z,3.20
2022-07-31T19:48:43.830Z,2.88
2022-07-31T19:51:11.397Z,3.28
2022-07-31T19:53:38.649Z,2.80
2022-07-31T19:56:06.136Z,2.35
2022-07-31T19:58:35.367Z,2.25
2022-07-31T20:01:04.904Z,2.95
2022-07-31T20:03:31.931Z,3.33
2022-07-31T20:05:58.736Z,3.03
2022-07-31T20:08:25.862Z,2.25
2022-07-31T20:10:56.286Z,2.53
2022-07-31T20:13:23.071Z,2.72
2022-07-31T20:15:51.315Z,2.30
2022-07-31T20:18:29.678Z,3.03
2022-07-31T20:21:03.458Z,4.43
2022-07-31T20:23:31.319Z,3.55
2022-07-31T20:25:58.660Z,2.92
2022-07-31T20:28:26.380Z,3.10
2022-07-31T20:30:53.580Z,2.22
2022-07-31T20:33:21.335Z,2.63
2022-07-31T20:35:50.172Z,2.47
2022-07-31T20:38:21.663Z,2.67
2022-07-31T20:40:54.515Z,2.97
2022-07-31T20:43:26.964Z,3.72
2022-07-31T20:45:57.368Z,2.33
2022-07-31T20:48:31.063Z,3.13
2022-07-31T20:51:03.600Z,2.47
2022-07-31T20:53:31.301Z,3.80
2022-07-31T20:55:58.666Z,2.72
2022-07-31T20:58:25.949Z,3.20
2022-07-31T21:00:53.695Z,5.55
2022-07-31T21:03:20.774Z,3.35
2022-07-31T21:05:48.149Z,3.75
2022-07-31T21:08:15.621Z,2.60
2022-07-31T21:10:42.370Z,3.92
2022-07-31T21:13:09.660Z,4.10
2022-07-31T21:15:42.745Z,2.95
2022-07-31T21:18:16.415Z,3.70
2022-07-31T21:20:51.198Z,3.75
2022-07-31T21:23:24.588Z,2.65
2022-07-31T21:25:56.669Z,4.10
2022-07-31T21:28:25.446Z,3.35
2022-07-31T21:30:56.623Z,3.20
2022-07-31T21:33:25.868Z,3.60
2022-07-31T21:35:53.445Z,2.78
2022-07-31T21:38:20.934Z,3.38
2022-07-31T21:40:48.368Z,3.60
2022-07-31T21:43:18.650Z,3.47
2022-07-31T21:45:55.147Z,2.67
2022-07-31T21:48:26.744Z,3.20
2022-07-31T21:50:54.721Z,2.50
2022-07-31T21:53:21.936Z,2.88
2022-07-31T21:55:49.179Z,2.55
2022-07-31T21:58:16.589Z,2.80
2022-07-31T22:00:44.358Z,2.72
2022-07-31T22:03:11.647Z,3.03
2022-07-31T22:05:56.900Z,4.82
2022-07-31T22:08:23.881Z,3.13
2022-07-31T22:10:52.119Z,3.35
2022-07-31T22:13:19.569Z,2.88
2022-07-31T22:15:51.407Z,3.72
2022-07-31T22:18:36.636Z,6.32
2022-07-31T22:21:08.667Z,3.03
2022-07-31T22:23:36.178Z,2.63
2022-07-31T22:26:03.599Z,3.90
2022-07-31T22:28:31.516Z,2.58
2022-07-31T22:30:58.731Z,3.42
2022-07-31T22:33:25.747Z,3.50
2022-07-31T22:35:58.253Z,3.88
2022-07-31T22:38:28.081Z,3.25
2022-07-31T22:40:55.030Z,3.42
2022-07-31T22:44:11.378Z,4.18
2022-07-31T22:46:11.843Z,4.30
2022-07-31T22:48:40.523Z,3.15
2022-07-31T22:51:08.173Z,3.13
2022-07-31T22:53:35.177Z,3.33
2022-07-31T22:56:02.117Z,3.00
2022-07-31T22:58:29.230Z,2.97
2022-07-31T23:00:56.337Z,2.88
2022-07-31T23:03:23.176Z,4.15
2022-07-31T23:06:12.219Z,3.33
2022-07-31T23:08:37.069Z,2.38
2022-07-31T23:11:04.506Z,5.13
2022-07-31T23:13:31.327Z,2.90
2022-07-31T23:15:58.173Z,2.75
2022-07-31T23:18:26.840Z,4.28
2022-07-31T23:20:53.877Z,2.58
2022-07-31T23:23:20.722Z,2.97
2022-07-31T23:25:47.419Z,3.03
2022-07-31T23:28:14.218Z,3.55
2022-07-31T23:30:41.179Z,3.67
2022-07-31T23:33:08.005Z,4.10
2022-07-31T23:35:34.861Z,3.22
2022-07-31T23:38:01.689Z,3.35
2022-07-31T23:40:28.534Z,3.10
2022-07-31T23:42:55.262Z,3.58
2022-07-31T23:45:23.437Z,3.15
2022-07-31T23:47:50.805Z,3.33
2022-07-31T23:50:18.032Z,4.10
2022-07-31T23:52:45.085Z,2.78
2022-07-31T23:55:12.952Z,2.83
2022-07-31T23:57:40.603Z,2.67
